createdAt,value
2022-09-20T00:01:22.163Z,7.39
2022-09-20T00:03:52.480Z,7.40
2022-09-20T00:06:22.603Z,7.37
2022-09-20T00:08:51.302Z,7.33
2022-09-20T00:11:24.074Z,7.30
2022-09-20T00:13:54.851Z,7.27
2022-09-20T00:16:27.759Z,7.30
2022-09-20T00:18:57.324Z,7.37
2022-09-20T00:21:27.840Z,7.36
2022-09-20T00:23:57.724Z,7.36
2022-09-20T00:26:27.395Z,7.36
2022-09-20T00:28:56.119Z,7.34
2022-09-20T00:31:24.902Z,7.32
2022-09-20T00:34:16.370Z,7.30
2022-09-20T00:36:44.967Z,7.29
2022-09-20T00:39:14.054Z,7.25
2022-09-20T00:41:42.848Z,7.23
2022-09-20T00:44:29.754Z,7.22
2022-09-20T00:46:58.384Z,7.17
2022-09-20T00:49:28.078Z,7.13
2022-09-20T00:51:57.657Z,7.12
2022-09-20T00:54:25.785Z,7.05
2022-09-20T00:56:53.802Z,6.99
2022-09-20T00:59:25.579Z,6.97
2022-09-20T01:01:59.425Z,6.99
2022-09-20T01:04:28.058Z,6.97
2022-09-20T01:06:58.201Z,6.96
2022-09-20T01:09:26.415Z,6.95
2022-09-20T01:11:56.067Z,6.94
2022-09-20T01:14:25.678Z,6.92
2022-09-20T01:16:55.409Z,6.91
2022-09-20T01:19:29.421Z,6.86
2022-09-20T01:21:57.785Z,6.81
2022-09-20T01:24:37.081Z,6.78
2022-09-20T01:27:14.459Z,6.75
2022-09-20T01:29:48.554Z,6.69
2022-09-20T01:32:19.799Z,6.66
2022-09-20T01:34:50.096Z,6.59
2022-09-20T01:37:17.965Z,6.53
2022-09-20T01:40:18.708Z,6.53
2022-09-20T01:42:51.648Z,6.50
2022-09-20T01:45:30.319Z,6.51
2022-09-20T01:48:17.217Z,6.54
2022-09-20T01:51:04.431Z,6.66
2022-09-20T01:53:50.961Z,6.63
2022-09-20T01:56:37.872Z,6.53
2022-09-20T01:59:24.222Z,6.47
2022-09-20T02:02:02.219Z,6.40
2022-09-20T02:04:30.161Z,6.31
2022-09-20T02:07:16.862Z,6.29
2022-09-20T02:10:03.177Z,6.25
2022-09-20T02:12:40.247Z,6.28
2022-09-20T02:15:29.210Z,6.25
2022-09-20T02:18:18.836Z,6.15
2022-09-20T02:21:05.539Z,6.10
2022-09-20T02:23:39.837Z,6.12
2022-09-20T02:26:17.111Z,6.12
2022-09-20T02:28:45.077Z,6.11
2022-09-20T02:31:20.515Z,6.11
2022-09-20T02:34:15.222Z,6.11
2022-09-20T02:37:02.038Z,6.14
2022-09-20T02:39:56.220Z,6.15
2022-09-20T02:42:30.779Z,6.16
2022-09-20T02:45:10.610Z,6.12
2022-09-20T02:47:39.896Z,6.15
2022-09-20T02:50:26.424Z,6.09
2022-09-20T02:53:14.579Z,6.22
2022-09-20T02:55:42.629Z,6.14
2022-09-20T02:58:22.983Z,6.03
2022-09-20T03:00:56.243Z,6.05
2022-09-20T03:03:34.794Z,5.99
2022-09-20T03:06:08.921Z,6.07
2022-09-20T03:08:47.944Z,6.15
2022-09-20T03:11:34.877Z,6.23
2022-09-20T03:14:11.948Z,6.35
2022-09-20T03:16:52.666Z,6.55
2022-09-20T03:19:33.899Z,6.54
2022-09-20T03:22:04.538Z,6.47
2022-09-20T03:24:42.637Z,6.37
2022-09-20T03:27:10.604Z,6.34
2022-09-20T03:29:55.939Z,6.38
2022-09-20T03:32:27.027Z,6.41
2022-09-20T03:34:58.055Z,6.40
2022-09-20T03:37:28.652Z,6.39
2022-09-20T03:40:09.910Z,6.37
2022-09-20T03:42:41.855Z,6.34
2022-09-20T03:45:18.637Z,6.32
2022-09-20T03:47:49.850Z,6.31
2022-09-20T03:50:24.175Z,6.31
2022-09-20T03:52:57.839Z,6.28
2022-09-20T03:55:44.656Z,6.33
2022-09-20T03:58:31.626Z,6.38
2022-09-20T04:01:28.195Z,6.40
2022-09-20T04:04:08.584Z,6.40
2022-09-20T04:06:39.561Z,6.44
2022-09-20T04:09:13.687Z,6.45
2022-09-20T04:11:51.861Z,6.50
2022-09-20T04:14:30.050Z,6.51
2022-09-20T04:17:11.820Z,6.52
2022-09-20T04:19:42.946Z,6.53
2022-09-20T04:22:11.190Z,6.51
2022-09-20T04:24:45.645Z,6.49
2022-09-20T04:27:32.011Z,6.52
2022-09-20T04:30:09.388Z,6.53
2022-09-20T04:32:48.196Z,6.52
2022-09-20T04:35:53.767Z,6.48
2022-09-20T04:38:21.996Z,6.45
2022-09-20T04:41:18.026Z,6.51
2022-09-20T04:43:52.376Z,6.52
2022-09-20T04:46:39.260Z,6.53
2022-09-20T04:49:25.983Z,6.57
2022-09-20T04:52:17.493Z,6.63
2022-09-20T04:54:45.877Z,6.69
2022-09-20T04:57:42.952Z,6.74
2022-09-20T05:00:19.281Z,6.76
2022-09-20T05:03:05.911Z,6.80
2022-09-20T05:05:47.092Z,6.82
2022-09-20T05:08:16.250Z,6.81
2022-09-20T05:10:47.454Z,6.83
2022-09-20T05:13:34.856Z,6.89
2022-09-20T05:16:02.828Z,7.03
2022-09-20T05:18:50.358Z,7.07
2022-09-20T05:21:18.448Z,7.12
2022-09-20T05:23:46.403Z,7.13
2022-09-20T05:26:40.448Z,7.18
2022-09-20T05:29:14.833Z,7.10
2022-09-20T05:31:56.347Z,6.96
2022-09-20T05:34:32.453Z,6.78
2022-09-20T05:37:16.416Z,6.59
2022-09-20T05:39:58.470Z,6.48
2022-09-20T05:42:35.852Z,6.74
2022-09-20T05:45:23.755Z,6.97
2022-09-20T05:48:11.174Z,7.00
2022-09-20T05:50:55.726Z,7.00
2022-09-20T05:53:27.187Z,7.00
2022-09-20T05:55:58.214Z,7.01
2022-09-20T05:58:29.669Z,7.05
2022-09-20T06:00:57.698Z,7.12
2022-09-20T06:03:44.966Z,7.22
2022-09-20T06:06:17.131Z,7.38
2022-09-20T06:09:03.770Z,7.51
2022-09-20T06:11:46.835Z,7.60
2022-09-20T06:14:38.391Z,7.70
2022-09-20T06:17:19.282Z,7.75
2022-09-20T06:19:52.943Z,7.83
2022-09-20T06:22:30.257Z,7.94
2022-09-20T06:25:02.290Z,8.00
2022-09-20T06:27:33.267Z,8.06
2022-09-20T06:30:05.914Z,8.02
2022-09-20T06:32:37.326Z,8.04
2022-09-20T06:35:05.781Z,8.18
2022-09-20T06:37:58.633Z,8.33
2022-09-20T06:40:57.736Z,8.45
2022-09-20T06:43:27.497Z,8.55
2022-09-20T06:45:55.958Z,8.75
2022-09-20T06:48:25.539Z,8.87
2022-09-20T06:50:53.714Z,8.94
2022-09-20T06:53:28.494Z,9.03
2022-09-20T06:55:57.567Z,8.94
2022-09-20T06:58:26.842Z,8.87
2022-09-20T07:00:54.841Z,8.94
2022-09-20T07:03:23.151Z,8.97
2022-09-20T07:05:51.730Z,9.09
2022-09-20T07:08:19.624Z,9.15
2022-09-20T07:10:48.254Z,9.13
2022-09-20T07:13:16.454Z,9.14
2022-09-20T07:15:44.485Z,9.04
2022-09-20T07:18:12.836Z,9.10
2022-09-20T07:20:41.915Z,9.14
2022-09-20T07:23:10.342Z,9.18
2022-09-20T07:25:38.518Z,9.24
2022-09-20T07:28:06.493Z,9.22
2022-09-20T07:30:34.772Z,9.24
2022-09-20T07:33:02.773Z,9.35
2022-09-20T07:35:31.220Z,9.46
2022-09-20T07:37:59.338Z,9.51
2022-09-20T07:40:27.488Z,9.48
2022-09-20T07:42:56.494Z,9.40
2022-09-20T07:45:24.336Z,9.40
2022-09-20T07:47:53.788Z,9.41
2022-09-20T07:50:22.161Z,9.43
2022-09-20T07:52:50.071Z,9.35
2022-09-20T07:55:18.365Z,9.39
2022-09-20T07:57:46.440Z,9.36
2022-09-20T08:00:14.718Z,9.37
2022-09-20T08:02:42.994Z,9.37
2022-09-20T08:05:11.538Z,9.49
2022-09-20T08:07:39.623Z,9.64
2022-09-20T08:10:07.868Z,9.75
2022-09-20T08:15:24.764Z,10.10
2022-09-20T08:17:52.776Z,10.25
2022-09-20T08:20:20.876Z,10.20
2022-09-20T08:23:06.343Z,10.20
2022-09-20T08:25:39.688Z,10.01
2022-09-20T08:28:07.705Z,9.82
2022-09-20T08:30:35.629Z,9.71
2022-09-20T08:33:04.123Z,9.57
2022-09-20T08:35:38.221Z,9.53
2022-09-20T08:41:19.022Z,9.66
2022-09-20T08:44:06.269Z,9.93
2022-09-20T08:46:37.762Z,10.18
2022-09-20T08:49:10.872Z,10.37
2022-09-20T08:51:39.962Z,10.38
2022-09-20T08:54:12.264Z,10.24
2022-09-20T08:56:40.259Z,10.22
2022-09-20T08:59:14.277Z,10.26
2022-09-20T09:01:43.356Z,10.28
2022-09-20T09:04:16.410Z,10.33
2022-09-20T09:06:45.250Z,10.35
2022-09-20T09:09:29.456Z,10.29
2022-09-20T09:11:58.980Z,10.34
2022-09-20T09:14:50.887Z,10.40
2022-09-20T09:17:20.386Z,10.47
2022-09-20T09:19:58.961Z,10.37
2022-09-20T09:22:39.812Z,10.23
2022-09-20T09:25:19.763Z,10.14
2022-09-20T09:27:50.977Z,10.20
2022-09-20T09:30:20.569Z,10.24
2022-09-20T09:32:48.600Z,10.23
2022-09-20T09:35:28.905Z,10.27
2022-09-20T09:38:00.977Z,10.31
2022-09-20T09:40:30.206Z,10.27
2022-09-20T09:43:02.908Z,10.30
2022-09-20T09:45:41.172Z,10.20
2022-09-20T09:48:18.025Z,10.21
2022-09-20T09:50:49.469Z,10.21
2022-09-20T09:53:22.561Z,10.25
2022-09-20T09:55:58.207Z,10.28
2022-09-20T09:58:45.874Z,10.32
2022-09-20T10:01:39.714Z,10.40
2022-09-20T10:04:08.092Z,10.44
2022-09-20T10:06:41.191Z,10.44
2022-09-20T10:09:32.408Z,10.45
2022-09-20T10:12:27.197Z,10.31
2022-09-20T10:14:55.052Z,10.31
2022-09-20T10:17:34.897Z,10.27
2022-09-20T10:20:21.396Z,10.20
2022-09-20T10:23:39.297Z,10.13
2022-09-20T10:26:15.079Z,10.17
2022-09-20T10:29:01.945Z,10.19
2022-09-20T10:31:29.974Z,10.23
2022-09-20T10:34:35.599Z,10.31
2022-09-20T10:37:07.336Z,10.36
2022-09-20T10:39:37.219Z,10.39
2022-09-20T10:42:36.032Z,10.35
2022-09-20T10:45:07.506Z,10.31
2022-09-20T10:47:59.222Z,10.28
2022-09-20T10:50:39.350Z,10.28
2022-09-20T10:53:17.258Z,10.27
2022-09-20T10:55:54.645Z,10.24
2022-09-20T10:58:23.904Z,10.32
2022-09-20T11:01:06.361Z,10.38
2022-09-20T11:03:53.173Z,10.38
2022-09-20T11:06:29.935Z,10.41
2022-09-20T11:08:59.920Z,10.43
2022-09-20T11:11:34.833Z,10.47
2022-09-20T11:14:02.672Z,10.53
2022-09-20T11:16:30.564Z,10.60
2022-09-20T11:19:05.676Z,10.58
2022-09-20T11:21:44.295Z,10.58
2022-09-20T11:24:15.337Z,10.50
2022-09-20T11:26:46.816Z,10.45
2022-09-20T11:29:36.225Z,10.39
2022-09-20T11:32:24.830Z,10.34
2022-09-20T11:35:07.027Z,10.29
2022-09-20T11:37:38.275Z,10.23
2022-09-20T11:40:20.802Z,10.23
2022-09-20T11:42:50.498Z,10.20
2022-09-20T11:45:26.279Z,10.19
2022-09-20T11:48:07.496Z,10.11
2022-09-20T11:50:45.402Z,10.05
2022-09-20T11:53:17.661Z,9.99
2022-09-20T11:55:48.784Z,10.02
2022-09-20T11:58:19.189Z,10.05
2022-09-20T12:00:48.799Z,10.03
2022-09-20T12:03:22.575Z,10.03
2022-09-20T12:06:01.599Z,10.02
2022-09-20T12:08:33.993Z,10.07
2022-09-20T12:11:04.355Z,10.13
2022-09-20T12:13:35.575Z,10.18
2022-09-20T12:16:17.938Z,10.25
2022-09-20T12:18:47.392Z,10.31
2022-09-20T12:21:16.885Z,10.36
2022-09-20T12:23:44.869Z,10.41
2022-09-20T12:26:15.728Z,10.48
2022-09-20T12:28:45.137Z,10.51
2022-09-20T12:31:16.125Z,10.49
2022-09-20T12:34:10.725Z,10.49
2022-09-20T12:36:40.514Z,10.44
2022-09-20T12:39:09.772Z,10.41
2022-09-20T12:41:46.134Z,10.40
2022-09-20T12:44:26.006Z,10.38
2022-09-20T12:47:08.953Z,10.34
2022-09-20T12:49:58.995Z,10.33
2022-09-20T12:52:45.700Z,10.32
2022-09-20T12:55:30.219Z,10.34
2022-09-20T12:58:02.284Z,10.39
2022-09-20T13:00:36.419Z,10.41
2022-09-20T13:03:23.978Z,10.40
2022-09-20T13:06:15.810Z,10.46
2022-09-20T13:08:43.571Z,10.49
2022-09-20T13:11:17.002Z,10.51
2022-09-20T13:13:45.094Z,10.47
2022-09-20T13:16:22.375Z,10.45
2022-09-20T13:19:11.320Z,10.48
2022-09-20T13:21:42.572Z,10.51
2022-09-20T13:24:16.082Z,10.46
2022-09-20T13:26:45.650Z,10.45
2022-09-20T13:29:33.732Z,10.46
2022-09-20T13:32:20.443Z,10.49
2022-09-20T13:35:05.679Z,10.41
2022-09-20T13:37:34.161Z,10.34
2022-09-20T13:40:03.123Z,10.29
2022-09-20T13:42:33.639Z,10.32
2022-09-20T13:45:03.651Z,10.31
2022-09-20T13:47:32.396Z,10.32
2022-09-20T13:50:02.339Z,10.31
2022-09-20T13:52:31.542Z,10.37
2022-09-20T13:54:59.788Z,10.39
2022-09-20T13:57:29.705Z,10.45
2022-09-20T13:59:58.908Z,10.42
2022-09-20T14:02:29.834Z,10.42
2022-09-20T14:05:00.220Z,10.45
2022-09-20T14:07:29.782Z,10.48
2022-09-20T14:09:59.083Z,10.46
2022-09-20T14:12:27.925Z,10.48
2022-09-20T14:14:56.256Z,10.48
2022-09-20T14:17:25.026Z,10.45
2022-09-20T14:19:54.856Z,10.43
2022-09-20T14:22:24.673Z,10.45
2022-09-20T14:25:00.043Z,10.44
2022-09-20T14:27:29.581Z,10.43
2022-09-20T14:29:58.212Z,10.41
2022-09-20T14:32:36.841Z,10.35
2022-09-20T14:35:15.964Z,10.34
2022-09-20T14:38:01.659Z,10.36
2022-09-20T14:40:31.453Z,10.43
2022-09-20T14:43:03.862Z,10.45
2022-09-20T14:45:33.542Z,10.46
2022-09-20T14:48:09.346Z,10.44
2022-09-20T14:50:38.360Z,10.41
2022-09-20T14:53:23.414Z,10.35
2022-09-20T14:55:59.460Z,10.35
2022-09-20T14:58:27.717Z,10.25
2022-09-20T15:00:59.312Z,10.23
2022-09-20T15:03:27.274Z,10.21
2022-09-20T15:05:55.608Z,10.20
2022-09-20T15:08:23.723Z,10.16
2022-09-20T15:10:52.068Z,10.11
2022-09-20T15:13:19.910Z,10.06
2022-09-20T15:15:53.496Z,10.06
2022-09-20T15:18:34.980Z,10.08
2022-09-20T15:21:03.104Z,10.12
2022-09-20T15:23:31.255Z,10.12
2022-09-20T15:26:00.386Z,10.10
2022-09-20T15:28:28.339Z,10.07
2022-09-20T15:30:57.682Z,10.07
2022-09-20T15:33:29.514Z,10.07
2022-09-20T15:35:58.094Z,10.07
2022-09-20T15:38:27.221Z,10.09
2022-09-20T15:40:55.175Z,10.10
2022-09-20T15:43:26.872Z,10.06
2022-09-20T15:45:56.160Z,10.07
2022-09-20T15:48:25.842Z,10.09
2022-09-20T15:51:05.785Z,10.10
2022-09-20T15:53:34.518Z,10.12
2022-09-20T15:56:05.070Z,10.14
2022-09-20T15:58:36.146Z,10.13
2022-09-20T16:01:08.288Z,10.10
2022-09-20T16:03:36.737Z,10.04
2022-09-20T16:06:06.199Z,10.02
2022-09-20T16:08:35.338Z,10.00
2022-09-20T16:11:03.583Z,10.00
2022-09-20T16:13:31.655Z,9.97
2022-09-20T16:16:01.288Z,9.92
2022-09-20T16:18:48.231Z,9.81
2022-09-20T16:21:18.916Z,9.74
2022-09-20T16:23:51.490Z,9.67
2022-09-20T16:26:20.141Z,9.56
2022-09-20T16:28:49.521Z,9.50
2022-09-20T16:31:33.082Z,9.42
2022-09-20T16:34:02.832Z,9.35
2022-09-20T16:36:32.441Z,9.33
2022-09-20T16:39:01.260Z,9.34
2022-09-20T16:41:29.715Z,9.29
2022-09-20T16:43:58.007Z,9.18
2022-09-20T16:46:29.651Z,9.20
2022-09-20T16:49:00.436Z,9.17
2022-09-20T16:51:33.501Z,9.08
2022-09-20T16:54:02.574Z,9.07
2022-09-20T16:56:34.129Z,9.09
2022-09-20T16:59:02.833Z,9.04
2022-09-20T17:01:31.606Z,8.94
2022-09-20T17:03:59.679Z,8.80
2022-09-20T17:06:29.009Z,8.76
2022-09-20T17:08:59.168Z,8.68
2022-09-20T17:11:28.558Z,8.58
2022-09-20T17:13:57.402Z,8.47
2022-09-20T17:16:28.008Z,8.46
2022-09-20T17:18:58.307Z,8.52
2022-09-20T17:21:27.676Z,8.41
2022-09-20T17:23:56.970Z,8.24
2022-09-20T17:26:31.528Z,8.18
2022-09-20T17:29:00.892Z,8.17
2022-09-20T17:31:34.215Z,8.18
2022-09-20T17:34:04.169Z,8.11
2022-09-20T17:36:33.406Z,8.01
2022-09-20T17:39:04.369Z,7.92
2022-09-20T17:41:34.013Z,7.88
2022-09-20T17:44:03.055Z,7.91
2022-09-20T17:46:31.993Z,7.93
2022-09-20T17:49:01.279Z,7.97
2022-09-20T17:51:30.978Z,7.93
2022-09-20T17:54:00.366Z,7.74
2022-09-20T17:56:29.563Z,7.69
2022-09-20T17:58:59.077Z,7.70
2022-09-20T18:01:27.964Z,7.69
2022-09-20T18:03:57.760Z,7.68
2022-09-20T18:06:25.852Z,7.71
2022-09-20T18:08:55.256Z,7.60
2022-09-20T18:11:27.424Z,7.56
2022-09-20T18:13:55.456Z,7.61
2022-09-20T18:16:24.115Z,7.64
2022-09-20T18:18:52.104Z,7.47
2022-09-20T18:21:21.358Z,7.38
2022-09-20T18:23:49.839Z,7.31
2022-09-20T18:26:22.153Z,7.24
2022-09-20T18:29:01.691Z,7.20
2022-09-20T18:31:32.514Z,7.14
2022-09-20T18:34:01.179Z,7.12
2022-09-20T18:36:30.201Z,7.15
2022-09-20T18:38:59.545Z,7.27
2022-09-20T18:41:29.086Z,7.35
2022-09-20T18:43:57.683Z,7.41
2022-09-20T18:46:27.107Z,7.47
2022-09-20T18:48:57.239Z,7.49
2022-09-20T18:51:26.296Z,7.46
2022-09-20T18:53:54.660Z,7.38
2022-09-20T18:56:22.977Z,7.38
2022-09-20T18:58:55.126Z,7.36
2022-09-20T19:01:23.173Z,7.38
2022-09-20T19:04:01.407Z,7.37
2022-09-20T19:06:33.385Z,7.35
2022-09-20T19:09:04.828Z,7.26
2022-09-20T19:11:42.010Z,7.18
2022-09-20T19:14:25.549Z,7.07
2022-09-20T19:16:59.527Z,7.02
2022-09-20T19:19:31.037Z,6.99
2022-09-20T19:22:04.001Z,6.99
2022-09-20T19:24:40.166Z,6.91
2022-09-20T19:27:11.309Z,6.94
2022-09-20T19:29:39.521Z,6.93
2022-09-20T19:32:11.758Z,6.85
2022-09-20T19:34:42.968Z,6.73
2022-09-20T19:37:19.983Z,6.81
2022-09-20T19:40:03.208Z,6.71
2022-09-20T19:42:53.125Z,6.58
2022-09-20T19:45:35.406Z,6.57
2022-09-20T19:48:06.141Z,6.60
2022-09-20T19:50:45.456Z,6.62
2022-09-20T19:53:14.895Z,6.62
2022-09-20T19:55:47.278Z,6.63
2022-09-20T19:58:15.292Z,6.63
2022-09-20T20:00:44.376Z,6.60
2022-09-20T20:03:13.102Z,6.56
2022-09-20T20:05:52.731Z,6.57
2022-09-20T20:08:48.910Z,6.53
2022-09-20T20:11:35.807Z,6.45
2022-09-20T20:14:12.214Z,6.35
2022-09-20T20:16:47.035Z,6.33
2022-09-20T20:19:14.978Z,6.34
2022-09-20T20:21:52.896Z,6.36
2022-09-20T20:24:29.993Z,6.40
2022-09-20T20:26:58.141Z,6.41
2022-09-20T20:29:26.128Z,6.48
2022-09-20T20:31:54.185Z,6.62
2022-09-20T20:34:23.112Z,6.70
2022-09-20T20:36:52.501Z,6.70
2022-09-20T20:39:20.452Z,6.70
2022-09-20T20:41:52.571Z,6.72
2022-09-20T20:44:22.029Z,6.72
2022-09-20T20:46:50.927Z,6.74
2022-09-20T20:49:19.029Z,6.77
2022-09-20T20:51:47.678Z,6.75
2022-09-20T20:54:15.782Z,6.69
2022-09-20T20:56:43.937Z,6.64
2022-09-20T20:59:12.106Z,6.70
2022-09-20T21:01:45.968Z,6.77
2022-09-20T21:04:15.829Z,6.79
2022-09-20T21:06:44.213Z,6.77
2022-09-20T21:09:13.575Z,6.74
2022-09-20T21:11:44.952Z,6.70
2022-09-20T21:14:13.094Z,6.64
2022-09-20T21:16:45.753Z,6.57
2022-09-20T21:19:15.731Z,6.53
2022-09-20T21:21:44.943Z,6.53
2022-09-20T21:24:15.322Z,6.57
2022-09-20T21:26:43.439Z,6.63
2022-09-20T21:29:12.070Z,6.71
2022-09-20T21:31:41.530Z,6.75
2022-09-20T21:34:11.400Z,6.74
2022-09-20T21:36:41.608Z,6.71
2022-09-20T21:39:09.743Z,6.70
2022-09-20T21:41:38.471Z,6.71
2022-09-20T21:44:07.537Z,6.73
2022-09-20T21:46:40.382Z,6.78
2022-09-20T21:49:09.954Z,6.84
2022-09-20T21:51:38.814Z,6.87
2022-09-20T21:54:06.883Z,6.95
2022-09-20T21:56:36.025Z,7.06
2022-09-20T21:59:06.350Z,7.10
2022-09-20T22:01:36.101Z,7.10
2022-09-20T22:04:05.250Z,7.03
2022-09-20T22:06:35.139Z,6.98
2022-09-20T22:09:07.749Z,6.98
2022-09-20T22:11:39.286Z,6.97
2022-09-20T22:14:07.960Z,6.98
2022-09-20T22:16:38.124Z,6.97
2022-09-20T22:19:08.205Z,6.98
2022-09-20T22:21:37.504Z,6.98
2022-09-20T22:24:07.329Z,7.04
2022-09-20T22:26:37.033Z,7.12
2022-09-20T22:29:05.567Z,7.15
2022-09-20T22:31:35.020Z,7.12
2022-09-20T22:34:04.348Z,7.07
2022-09-20T22:36:34.303Z,6.99
2022-09-20T22:39:03.546Z,6.89
2022-09-20T22:41:31.718Z,6.82
2022-09-20T22:43:59.709Z,6.81
2022-09-20T22:46:28.886Z,6.82
2022-09-20T22:48:56.989Z,6.77
2022-09-20T22:51:29.758Z,6.72
2022-09-20T22:53:57.819Z,6.72
2022-09-20T22:56:29.537Z,6.80
2022-09-20T22:59:00.177Z,6.86
2022-09-20T23:01:32.849Z,6.93
2022-09-20T23:04:06.377Z,6.99
2022-09-20T23:06:38.412Z,7.05
2022-09-20T23:09:08.182Z,7.12
2022-09-20T23:11:36.419Z,7.13
2022-09-20T23:14:06.086Z,7.10
2022-09-20T23:16:35.770Z,7.11
2022-09-20T23:19:04.662Z,7.06
2022-09-20T23:21:33.147Z,7.05
2022-09-20T23:24:02.228Z,7.08
2022-09-20T23:26:31.079Z,7.15
2022-09-20T23:29:00.437Z,7.21
2022-09-20T23:31:29.535Z,7.29
2022-09-20T23:34:01.540Z,7.35
2022-09-20T23:36:32.543Z,7.44
2022-09-20T23:39:00.720Z,7.47
2022-09-20T23:41:29.312Z,7.58
2022-09-20T23:43:57.772Z,7.61
2022-09-20T23:46:27.088Z,7.61
2022-09-20T23:48:55.161Z,7.66
2022-09-20T23:51:24.132Z,7.73
2022-09-20T23:53:53.480Z,7.73
2022-09-20T23:56:22.332Z,7.67
2022-09-20T23:58:50.730Z,7.69
